Clemville, Texas
Current Conditions -  °F | °C
As of 2:53 AM on Wednesday 22 Oct 2014 (Local Time) from KLBX Reporting Station
Clear Clear  
Wind Chill: 61°   Ceiling: Unl
Heat Index: 61°   Visibility: 10mi
Dew Point: 61°   Wind: 5mph
Humidity: 100%   Direction: 30°NNE
Pressure: 30.01"   Gusts: NA
Location:  28.8997°N, 95.7887°W
Report Text: KLBX 220753Z AUTO 03004KT 10SM CLR 16/16 A3001 RMK AO2 SLP162 T01610161
Loading
Personal Weather Stations






























Interactive Weather Map
Tropical Storm Tracking
New forecast layout! Learn more

10-Day Weather Forecast

Advertisements
Track Severe Weather on mobile